createdAt,value
2022-08-27T00:01:55.779Z,70.46
2022-08-27T00:04:58.860Z,70.24
2022-08-27T00:08:01.568Z,69.98
2022-08-27T00:11:04.599Z,70.31
2022-08-27T00:14:07.234Z,70.49
2022-08-27T00:17:11.103Z,70.68
2022-08-27T00:20:17.148Z,70.17
2022-08-27T00:23:20.136Z,69.80
2022-08-27T00:26:22.764Z,69.78
2022-08-27T00:29:29.896Z,71.11
2022-08-27T00:32:32.674Z,71.25
2022-08-27T00:35:35.826Z,71.27
2022-08-27T00:38:40.455Z,70.87
2022-08-27T00:41:48.522Z,70.85
2022-08-27T00:44:51.249Z,71.22
2022-08-27T00:47:58.119Z,71.29
2022-08-27T00:51:01.418Z,71.33
2022-08-27T00:54:05.869Z,71.65
2022-08-27T00:57:08.723Z,70.96
2022-08-27T01:00:16.132Z,70.52
2022-08-27T01:03:18.793Z,70.15
2022-08-27T01:06:23.658Z,69.75
2022-08-27T01:09:27.099Z,70.01
2022-08-27T01:12:31.835Z,70.19
2022-08-27T01:15:35.256Z,70.89
2022-08-27T01:18:39.375Z,70.47
2022-08-27T01:22:21.875Z,70.74
2022-08-27T01:25:27.534Z,71.46
2022-08-27T01:28:37.485Z,71.58
2022-08-27T01:31:40.912Z,72.11
2022-08-27T01:34:43.686Z,72.18
2022-08-27T01:37:49.976Z,72.03
2022-08-27T01:40:55.927Z,71.84
2022-08-27T01:43:59.101Z,71.91
2022-08-27T01:47:02.300Z,72.33
2022-08-27T01:50:11.309Z,72.62
2022-08-27T01:53:25.234Z,72.99
2022-08-27T01:56:28.381Z,73.05
2022-08-27T01:59:39.719Z,73.06
2022-08-27T02:02:43.987Z,72.50
2022-08-27T02:05:48.553Z,71.98
2022-08-27T02:08:51.211Z,71.60
2022-08-27T02:11:54.173Z,71.75
2022-08-27T02:14:56.860Z,72.98
2022-08-27T02:18:00.526Z,73.70
2022-08-27T02:21:03.267Z,73.59
2022-08-27T02:24:06.507Z,73.82
2022-08-27T02:27:09.646Z,73.82
2022-08-27T02:30:15.198Z,74.10
2022-08-27T02:33:18.078Z,74.35
2022-08-27T02:36:21.230Z,74.37
2022-08-27T02:39:23.915Z,74.27
2022-08-27T02:42:27.165Z,74.08
2022-08-27T02:45:29.801Z,74.19
2022-08-27T02:48:36.590Z,74.16
2022-08-27T02:51:39.415Z,74.34
2022-08-27T02:54:42.483Z,74.21
2022-08-27T02:57:45.898Z,74.07
2022-08-27T03:00:48.944Z,74.60
2022-08-27T03:03:52.143Z,74.57
2022-08-27T03:06:56.405Z,74.07
2022-08-27T03:09:59.129Z,73.92
2022-08-27T03:13:03.216Z,73.61
2022-08-27T03:16:07.432Z,72.67
2022-08-27T03:19:11.094Z,70.84
2022-08-27T03:22:13.740Z,69.63
2022-08-27T03:25:17.446Z,69.30
2022-08-27T03:28:26.052Z,68.93
2022-08-27T03:31:29.474Z,69.15
2022-08-27T03:34:32.169Z,69.20
2022-08-27T03:37:35.208Z,68.30
2022-08-27T03:40:37.942Z,68.83
2022-08-27T03:43:40.986Z,68.38
2022-08-27T03:46:44.231Z,69.77
2022-08-27T03:49:47.196Z,69.35
2022-08-27T03:52:49.966Z,70.94
2022-08-27T03:55:52.992Z,71.27
2022-08-27T03:58:55.657Z,70.54
2022-08-27T04:01:58.673Z,70.73
2022-08-27T04:05:01.667Z,71.05
2022-08-27T04:08:04.329Z,71.46
2022-08-27T04:11:07.911Z,70.57
2022-08-27T04:14:26.272Z,70.26
2022-08-27T04:17:30.094Z,71.00
2022-08-27T04:20:35.352Z,70.01
2022-08-27T04:23:40.777Z,70.75
2022-08-27T04:26:45.787Z,70.43
2022-08-27T04:29:48.776Z,70.50
2022-08-27T04:32:54.224Z,70.71
2022-08-27T04:36:02.485Z,71.02
2022-08-27T04:39:05.146Z,70.94
2022-08-27T04:42:08.251Z,69.66
2022-08-27T04:45:11.365Z,68.23
2022-08-27T04:48:16.306Z,67.36
2022-08-27T04:51:20.531Z,66.41
2022-08-27T04:54:32.324Z,64.79
2022-08-27T04:57:37.993Z,64.67
2022-08-27T05:00:46.312Z,63.63
2022-08-27T05:03:48.975Z,63.05
2022-08-27T05:06:54.499Z,62.73
2022-08-27T05:09:57.637Z,62.04
2022-08-27T05:13:00.501Z,62.03
2022-08-27T05:16:09.944Z,61.97
2022-08-27T05:19:16.344Z,61.25
2022-08-27T05:22:19.027Z,61.06
2022-08-27T05:25:22.775Z,60.52
2022-08-27T05:28:27.849Z,60.17
2022-08-27T05:31:31.284Z,59.60
2022-08-27T05:34:33.879Z,59.04
2022-08-27T05:37:37.083Z,59.05
2022-08-27T05:40:40.641Z,58.83
2022-08-27T05:43:49.637Z,58.75
2022-08-27T05:46:53.254Z,58.63
2022-08-27T05:49:56.671Z,58.19
2022-08-27T05:52:59.461Z,58.09
2022-08-27T05:56:02.488Z,58.85
2022-08-27T05:59:25.283Z,58.22
2022-08-27T06:02:29.534Z,57.73
2022-08-27T06:05:32.590Z,57.16
2022-08-27T06:08:37.016Z,57.48
2022-08-27T06:11:40.516Z,57.23
2022-08-27T06:14:43.136Z,56.81
2022-08-27T06:17:46.155Z,56.77
2022-08-27T06:20:48.755Z,57.28
2022-08-27T06:23:53.370Z,56.33
2022-08-27T06:26:56.722Z,56.09
2022-08-27T06:29:59.790Z,56.07
2022-08-27T06:33:02.394Z,56.37
2022-08-27T06:36:08.640Z,56.10
2022-08-27T06:39:13.810Z,55.65
2022-08-27T06:42:16.736Z,55.86
2022-08-27T06:45:22.995Z,55.50
2022-08-27T06:48:26.312Z,55.11
2022-08-27T06:51:35.228Z,54.76
2022-08-27T06:54:39.860Z,54.32
2022-08-27T06:57:42.516Z,54.07
2022-08-27T07:00:48.865Z,53.85
2022-08-27T07:03:54.021Z,53.77
2022-08-27T07:06:57.015Z,53.88
2022-08-27T07:09:59.886Z,53.76
2022-08-27T07:13:03.326Z,53.39
2022-08-27T07:16:12.924Z,53.04
2022-08-27T07:19:16.288Z,52.49
2022-08-27T07:22:19.496Z,52.36
2022-08-27T07:25:22.512Z,52.00
2022-08-27T07:28:26.299Z,51.28
2022-08-27T07:31:29.492Z,51.60
2022-08-27T07:34:32.250Z,51.46
2022-08-27T07:37:40.236Z,50.70
2022-08-27T07:40:42.818Z,49.80
2022-08-27T07:44:04.174Z,47.64
2022-08-27T07:47:07.904Z,48.03
2022-08-27T07:50:11.262Z,47.50
2022-08-27T07:53:13.974Z,46.78
2022-08-27T07:56:18.964Z,44.63
2022-08-27T07:59:21.929Z,45.44
2022-08-27T08:02:27.775Z,45.77
2022-08-27T08:05:31.196Z,45.37
2022-08-27T08:08:35.308Z,44.26
2022-08-27T08:11:38.271Z,43.35
2022-08-27T08:14:40.987Z,43.78
2022-08-27T08:17:44.487Z,43.68
2022-08-27T08:20:58.047Z,44.27
2022-08-27T08:24:02.565Z,43.27
2022-08-27T08:27:07.674Z,43.55
2022-08-27T08:30:12.202Z,42.83
2022-08-27T08:33:15.062Z,42.69
2022-08-27T08:36:18.102Z,42.08
2022-08-27T08:39:20.719Z,41.86
2022-08-27T08:42:28.445Z,41.23
2022-08-27T08:45:35.332Z,40.71
2022-08-27T08:48:42.800Z,40.59
2022-08-27T08:51:45.717Z,39.71
2022-08-27T08:54:51.674Z,39.66
2022-08-27T08:58:13.033Z,37.74
2022-08-27T09:01:20.775Z,38.05
2022-08-27T09:04:25.868Z,38.07
2022-08-27T09:07:47.251Z,37.63
2022-08-27T09:11:13.319Z,36.48
2022-08-27T09:14:34.688Z,36.84
2022-08-27T09:17:37.944Z,36.00
2022-08-27T09:20:45.523Z,34.13
2022-08-27T09:24:01.887Z,32.97
2022-08-27T09:27:05.144Z,33.53
2022-08-27T09:30:21.420Z,34.06
2022-08-27T09:33:24.374Z,32.71
2022-08-27T09:36:26.951Z,31.80
2022-08-27T09:40:27.389Z,30.47
2022-08-27T09:43:32.025Z,31.57
2022-08-27T09:46:34.977Z,31.46
2022-08-27T09:49:38.608Z,31.44
2022-08-27T09:52:56.839Z,30.65
2022-08-27T09:56:03.253Z,30.46
2022-08-27T09:59:07.925Z,31.25
2022-08-27T10:02:19.602Z,30.80
2022-08-27T10:05:31.285Z,28.63
2022-08-27T10:08:48.816Z,29.15
2022-08-27T10:12:03.572Z,28.91
2022-08-27T10:15:07.082Z,29.37
2022-08-27T10:18:19.795Z,29.09
2022-08-27T10:21:33.841Z,29.12
2022-08-27T10:25:02.908Z,29.06
2022-08-27T10:28:30.704Z,29.21
2022-08-27T10:32:25.515Z,28.54
2022-08-27T10:35:51.853Z,28.24
2022-08-27T10:39:19.069Z,28.70
2022-08-27T10:42:32.598Z,28.32
2022-08-27T10:45:47.712Z,28.14
2022-08-27T10:49:14.604Z,27.77
2022-08-27T10:52:43.260Z,26.63
2022-08-27T10:55:52.357Z,27.68
2022-08-27T10:59:13.467Z,27.46
2022-08-27T11:02:19.286Z,26.16
2022-08-27T11:05:25.007Z,26.72
2022-08-27T11:08:36.369Z,27.02
2022-08-27T11:12:12.796Z,27.04
2022-08-27T11:15:12.997Z,26.47
2022-08-27T11:18:42.316Z,26.11
2022-08-27T11:22:01.291Z,25.45
2022-08-27T11:25:10.358Z,25.68
2022-08-27T11:28:14.339Z,25.66
2022-08-27T11:31:21.091Z,25.65
2022-08-27T11:34:32.962Z,25.09
2022-08-27T11:38:29.912Z,24.28
2022-08-27T11:41:50.399Z,24.42
2022-08-27T11:45:03.933Z,23.96
2022-08-27T11:48:21.406Z,24.14
2022-08-27T11:51:35.071Z,23.91
2022-08-27T11:55:16.675Z,23.44
2022-08-27T11:58:20.224Z,24.47
2022-08-27T12:01:31.755Z,24.27
2022-08-27T12:04:39.674Z,24.55
2022-08-27T12:07:46.068Z,24.37
2022-08-27T12:11:10.778Z,24.66
2022-08-27T12:14:17.530Z,24.47
2022-08-27T12:17:36.286Z,23.64
2022-08-27T12:21:03.033Z,24.07
2022-08-27T12:24:13.896Z,23.88
2022-08-27T12:27:24.314Z,24.07
2022-08-27T12:30:36.873Z,24.35
2022-08-27T12:33:46.804Z,24.03
2022-08-27T12:36:52.647Z,23.92
2022-08-27T12:39:58.882Z,23.74
2022-08-27T12:43:13.004Z,24.00
2022-08-27T12:46:19.172Z,23.83
2022-08-27T12:49:38.975Z,24.09
2022-08-27T12:52:54.166Z,24.12
2022-08-27T12:56:20.351Z,24.00
2022-08-27T12:59:44.117Z,23.87
2022-08-27T13:03:07.057Z,23.53
2022-08-27T13:06:33.078Z,23.63
2022-08-27T13:09:39.304Z,23.86
2022-08-27T13:12:43.334Z,22.67
2022-08-27T13:15:56.667Z,23.47
2022-08-27T13:18:59.944Z,22.92
2022-08-27T13:22:06.027Z,23.21
2022-08-27T13:25:30.254Z,23.40
2022-08-27T13:28:34.884Z,22.80
2022-08-27T13:31:38.340Z,22.95
2022-08-27T13:34:41.577Z,23.27
2022-08-27T13:37:48.286Z,23.23
2022-08-27T13:41:08.203Z,22.86
2022-08-27T13:44:32.541Z,22.89
2022-08-27T13:47:46.634Z,23.04
2022-08-27T13:50:53.050Z,23.04
2022-08-27T13:54:16.005Z,22.95
2022-08-27T13:57:30.294Z,22.95
2022-08-27T14:00:33.995Z,22.69
2022-08-27T14:03:47.558Z,22.64
2022-08-27T14:06:51.295Z,22.91
2022-08-27T14:09:58.902Z,22.80
2022-08-27T14:13:15.557Z,22.75
2022-08-27T14:16:27.559Z,22.74
2022-08-27T14:19:36.192Z,22.74
2022-08-27T14:22:39.993Z,22.77
2022-08-27T14:25:42.556Z,23.01
2022-08-27T14:28:46.195Z,22.68
2022-08-27T14:31:49.037Z,23.05
2022-08-27T14:34:53.339Z,23.08
2022-08-27T14:37:57.083Z,22.71
2022-08-27T14:41:00.682Z,22.96
2022-08-27T14:44:03.859Z,22.61
2022-08-27T14:47:09.676Z,22.89
2022-08-27T14:50:14.163Z,22.93
2022-08-27T14:53:17.523Z,22.51
2022-08-27T14:56:21.307Z,22.58
2022-08-27T14:59:25.855Z,22.62
2022-08-27T15:02:28.685Z,22.90
2022-08-27T15:05:31.639Z,22.57
2022-08-27T15:08:34.986Z,23.17
2022-08-27T15:11:41.678Z,22.85
2022-08-27T15:14:44.490Z,22.99
2022-08-27T15:17:47.626Z,22.73
2022-08-27T15:20:50.486Z,23.49
2022-08-27T15:24:01.330Z,23.37
2022-08-27T15:27:04.192Z,23.24
2022-08-27T15:30:09.941Z,23.38
2022-08-27T15:33:12.653Z,23.44
2022-08-27T15:36:15.865Z,23.45
2022-08-27T15:39:18.477Z,23.22
2022-08-27T15:42:21.613Z,23.82
2022-08-27T15:45:25.661Z,23.96
2022-08-27T15:48:31.345Z,24.20
2022-08-27T15:51:34.376Z,24.81
2022-08-27T15:54:37.476Z,25.45
2022-08-27T15:57:40.276Z,25.37
2022-08-27T16:00:46.500Z,25.66
2022-08-27T16:03:50.143Z,26.39
2022-08-27T16:06:54.919Z,26.19
2022-08-27T16:09:57.896Z,27.43
2022-08-27T16:13:00.871Z,27.44
2022-08-27T16:16:07.093Z,28.66
2022-08-27T16:19:12.583Z,29.53
2022-08-27T16:22:19.139Z,29.61
2022-08-27T16:25:23.374Z,31.44
2022-08-27T16:28:27.000Z,32.17
2022-08-27T16:31:30.046Z,33.63
2022-08-27T16:34:35.587Z,34.84
2022-08-27T16:37:38.282Z,34.13
2022-08-27T16:40:46.808Z,34.96
2022-08-27T16:43:50.043Z,36.29
2022-08-27T16:46:53.165Z,36.70
2022-08-27T16:50:22.900Z,37.54
2022-08-27T16:53:27.688Z,37.62
2022-08-27T16:56:32.830Z,38.26
2022-08-27T16:59:39.444Z,38.95
2022-08-27T17:02:42.618Z,39.39
2022-08-27T17:05:45.951Z,40.55
2022-08-27T17:08:53.997Z,40.93
2022-08-27T17:11:58.594Z,41.42
2022-08-27T17:15:01.496Z,41.74
2022-08-27T17:18:04.772Z,41.67
2022-08-27T17:21:07.720Z,42.10
2022-08-27T17:24:12.715Z,42.33
2022-08-27T17:27:17.903Z,42.91
2022-08-27T17:30:21.132Z,42.93
2022-08-27T17:33:34.424Z,43.50
2022-08-27T17:36:37.434Z,44.16
2022-08-27T17:39:40.153Z,44.20
2022-08-27T17:42:43.091Z,44.96
2022-08-27T17:45:45.788Z,44.91
2022-08-27T17:48:48.771Z,44.81
2022-08-27T17:51:56.364Z,45.17
2022-08-27T17:54:59.869Z,45.43
2022-08-27T17:58:02.547Z,45.58
2022-08-27T18:01:05.844Z,45.65
2022-08-27T18:04:14.544Z,46.17
2022-08-27T18:07:17.611Z,46.64
2022-08-27T18:10:23.908Z,46.83
2022-08-27T18:13:27.123Z,47.13
2022-08-27T18:16:30.239Z,46.86
2022-08-27T18:19:33.000Z,47.15
2022-08-27T18:22:38.894Z,48.02
2022-08-27T18:25:44.392Z,48.49
2022-08-27T18:28:47.847Z,48.96
2022-08-27T18:31:50.559Z,49.24
2022-08-27T18:34:56.348Z,49.50
2022-08-27T18:37:59.630Z,49.70
2022-08-27T18:41:03.244Z,50.22
2022-08-27T18:44:11.539Z,50.86
2022-08-27T18:47:20.310Z,50.46
2022-08-27T18:50:24.007Z,51.49
2022-08-27T18:53:29.756Z,52.07
2022-08-27T18:56:33.186Z,52.11
2022-08-27T18:59:36.199Z,51.64
2022-08-27T19:02:40.767Z,50.95
2022-08-27T19:05:43.933Z,50.58
2022-08-27T19:08:47.653Z,51.18
2022-08-27T19:11:51.941Z,51.45
2022-08-27T19:14:54.611Z,51.52
2022-08-27T19:17:59.543Z,52.34
2022-08-27T19:21:02.689Z,53.16
2022-08-27T19:24:06.723Z,53.13
2022-08-27T19:27:09.717Z,53.12
2022-08-27T19:30:15.432Z,53.16
2022-08-27T19:33:18.194Z,53.22
2022-08-27T19:36:23.438Z,53.64
2022-08-27T19:39:30.196Z,53.38
2022-08-27T19:42:33.183Z,53.68
2022-08-27T19:45:36.502Z,53.38
2022-08-27T19:48:43.481Z,52.94
2022-08-27T19:51:46.100Z,53.11
2022-08-27T19:55:10.181Z,53.35
2022-08-27T19:58:13.580Z,54.02
2022-08-27T20:01:16.712Z,54.64
2022-08-27T20:04:20.552Z,55.00
2022-08-27T20:07:23.232Z,55.68
2022-08-27T20:10:36.112Z,55.69
2022-08-27T20:13:47.896Z,55.49
2022-08-27T20:16:53.958Z,56.31
2022-08-27T20:19:58.869Z,56.18
2022-08-27T20:23:03.711Z,56.96
2022-08-27T20:26:06.411Z,57.22
2022-08-27T20:29:11.324Z,57.53
2022-08-27T20:32:19.514Z,57.78
2022-08-27T20:35:22.655Z,58.41
2022-08-27T20:38:25.732Z,58.23
2022-08-27T20:41:29.318Z,57.99
2022-08-27T20:44:32.419Z,58.60
2022-08-27T20:47:35.728Z,59.02
2022-08-27T20:50:38.854Z,59.56
2022-08-27T20:53:41.963Z,59.29
2022-08-27T20:56:52.164Z,60.11
2022-08-27T21:00:14.605Z,60.97
2022-08-27T21:03:17.286Z,60.58
2022-08-27T21:06:23.923Z,60.42
2022-08-27T21:09:28.816Z,60.89
2022-08-27T21:12:31.948Z,60.71
2022-08-27T21:15:34.636Z,61.27
2022-08-27T21:18:37.695Z,61.05
2022-08-27T21:21:40.374Z,61.36
2022-08-27T21:24:43.322Z,61.84
2022-08-27T21:27:45.944Z,61.16
2022-08-27T21:30:48.876Z,61.54
2022-08-27T21:33:51.983Z,62.05
2022-08-27T21:36:54.997Z,62.67
2022-08-27T21:39:57.657Z,62.87
2022-08-27T21:43:01.913Z,63.09
2022-08-27T21:46:04.713Z,63.34
2022-08-27T21:49:07.760Z,64.24
2022-08-27T21:52:10.612Z,63.98
2022-08-27T21:55:13.683Z,63.91
2022-08-27T21:58:16.314Z,62.62
2022-08-27T22:01:19.903Z,63.43
2022-08-27T22:04:23.160Z,63.79
2022-08-27T22:07:30.145Z,64.14
2022-08-27T22:10:33.476Z,64.12
2022-08-27T22:13:36.813Z,63.81
2022-08-27T22:16:39.833Z,63.51
2022-08-27T22:19:42.867Z,63.67
2022-08-27T22:22:45.805Z,63.37
2022-08-27T22:25:49.043Z,63.40
2022-08-27T22:28:52.136Z,63.48
2022-08-27T22:31:54.753Z,63.12
2022-08-27T22:34:57.657Z,63.68
2022-08-27T22:38:00.564Z,64.11
2022-08-27T22:41:03.739Z,64.17
2022-08-27T22:44:06.439Z,63.96
2022-08-27T22:47:10.340Z,63.88
2022-08-27T22:50:13.346Z,63.89
2022-08-27T22:53:16.299Z,64.59
2022-08-27T22:56:19.375Z,64.14
2022-08-27T22:59:22.587Z,64.20
2022-08-27T23:02:25.168Z,64.24
2022-08-27T23:05:28.702Z,63.97
2022-08-27T23:08:42.947Z,64.53
2022-08-27T23:11:45.927Z,64.89
2022-08-27T23:14:48.601Z,64.36
2022-08-27T23:17:52.369Z,64.30
2022-08-27T23:20:55.647Z,64.37
2022-08-27T23:23:58.676Z,64.85
2022-08-27T23:27:39.734Z,65.30
2022-08-27T23:30:44.862Z,65.55
2022-08-27T23:33:52.253Z,65.60
2022-08-27T23:36:56.237Z,65.20
2022-08-27T23:39:59.088Z,64.92
2022-08-27T23:43:02.146Z,65.21
2022-08-27T23:46:04.998Z,65.23
2022-08-27T23:49:07.976Z,65.27
2022-08-27T23:52:12.215Z,65.33
2022-08-27T23:55:15.237Z,65.25
2022-08-27T23:58:17.939Z,65.26
